Time;durP1;ratioP1;P1;durP2;ratioP2;P2;SDS_P1;SDS_P2;PMS_P1;PMS_P2;Temp;Humidity;BMP_temperature;BMP_pressure;BME280_temperature;BME280_humidity;BME280_pressure;Samples;Min_cycle;Max_cycle;Signal;HPM_P1;HPM_P2
2022/09/09 00:01:03;;;;;;;10.48;2.95;;;;;;;27.46;57.72;98451.56;2093515;28;20131;-51
2022/09/09 00:02:17;;;;;;;12.63;4.85;;;;;;;27.45;58.00;98449.94;2090980;28;20078;-51
2022/09/09 00:03:26;;;;;;;7.75;3.25;;;;;;;27.45;57.45;98458.09;2090108;28;20129;-54
2022/09/09 00:04:30;;;;;;;12.00;3.55;;;;;;;27.44;57.93;98451.81;2084505;28;27002;-52
2022/09/09 00:05:39;;;;;;;11.07;3.53;;;;;;;27.46;57.68;98449.66;2088816;28;20082;-52
2022/09/09 00:06:46;;;;;;;11.82;4.03;;;;;;;27.46;57.45;98443.38;2086278;28;20499;-54
2022/09/09 00:07:50;;;;;;;12.10;2.92;;;;;;;27.45;57.56;98449.94;2087074;28;20055;-52
2022/09/09 00:09:00;;;;;;;9.68;3.45;;;;;;;27.46;57.43;98441.47;2085635;28;20054;-54
2022/09/09 00:10:14;;;;;;;16.48;3.92;;;;;;;27.43;57.68;98443.91;2086532;28;20408;-56
2022/09/09 00:11:24;;;;;;;13.48;3.95;;;;;;;27.44;57.62;98440.09;2087724;28;20093;-51
2022/09/09 00:12:33;;;;;;;9.30;3.13;;;;;;;27.44;57.59;98438.19;2088306;28;20110;-53
2022/09/09 00:13:40;;;;;;;10.18;3.03;;;;;;;27.42;57.47;98434.94;2082561;28;20145;-54
2022/09/09 00:14:49;;;;;;;10.23;4.05;;;;;;;27.45;57.47;98439.03;2070614;28;20085;-51
2022/09/09 00:15:57;;;;;;;13.23;3.92;;;;;;;27.45;57.48;98439.03;2080175;28;20138;-55
2022/09/09 00:17:03;;;;;;;12.68;3.88;;;;;;;27.45;57.38;98439.84;2086860;28;20139;-53
2022/09/09 00:18:15;;;;;;;11.35;3.63;;;;;;;27.44;57.65;98427.28;2086898;28;20672;-54
2022/09/09 00:19:22;;;;;;;11.68;3.15;;;;;;;27.45;57.33;98430.84;2083828;28;20075;-51
2022/09/09 00:20:29;;;;;;;8.45;3.33;;;;;;;27.46;57.24;98435.22;2092846;28;20255;-53
2022/09/09 00:21:34;;;;;;;8.30;2.90;;;;;;;27.46;57.34;98432.50;2089225;28;20044;-54
2022/09/09 00:22:39;;;;;;;11.80;4.38;;;;;;;27.46;57.46;98432.50;2090375;28;20063;-52
2022/09/09 00:23:46;;;;;;;11.52;2.70;;;;;;;27.46;57.31;98425.13;2089872;28;21085;-52
2022/09/09 00:24:53;;;;;;;11.13;3.80;;;;;;;27.45;57.20;98428.13;2090787;28;21203;-52
2022/09/09 00:26:03;;;;;;;8.85;3.83;;;;;;;27.46;57.52;98432.50;2085341;28;20049;-55
2022/09/09 00:27:08;;;;;;;12.63;3.83;;;;;;;27.46;57.28;98427.03;2088842;28;20060;-50
2022/09/09 00:28:18;;;;;;;14.95;4.18;;;;;;;27.44;57.46;98430.03;2092575;28;20040;-54
2022/09/09 00:29:29;;;;;;;10.85;3.70;;;;;;;27.43;57.50;98422.13;2090993;28;20144;-53
2022/09/09 00:30:35;;;;;;;9.75;4.03;;;;;;;27.42;58.02;98426.75;2087555;28;20622;-51
2022/09/09 00:31:37;;;;;;;12.38;3.33;;;;;;;27.43;57.48;98427.56;2093509;28;20139;-53
2022/09/09 00:32:39;;;;;;;18.92;3.95;;;;;;;27.45;57.89;98428.94;2090791;28;20160;-53
2022/09/09 00:33:42;;;;;;;7.40;3.05;;;;;;;27.45;57.94;98426.22;2085709;28;20056;-52
2022/09/09 00:34:50;;;;;;;9.85;3.67;;;;;;;27.43;57.46;98422.13;2087071;28;20546;-48
2022/09/09 00:35:56;;;;;;;14.63;3.50;;;;;;;27.45;57.90;98425.41;2086438;28;20771;-54
2022/09/09 00:36:59;;;;;;;10.80;3.80;;;;;;;27.44;57.50;98419.13;2089201;28;20052;-51
2022/09/09 00:38:06;;;;;;;9.95;3.17;;;;;;;27.46;57.46;98421.59;2092455;28;20600;-54
2022/09/09 00:39:16;;;;;;;12.15;3.75;;;;;;;27.46;57.38;98418.88;2087066;28;20419;-53
2022/09/09 00:40:26;;;;;;;11.57;5.30;;;;;;;27.44;57.70;98418.31;2087160;28;20052;-54
2022/09/09 00:41:40;;;;;;;7.53;2.72;;;;;;;27.44;57.41;98421.03;2087796;28;21496;-51
2022/09/09 00:42:43;;;;;;;10.98;3.80;;;;;;;27.42;57.46;98415.06;2089441;28;20596;-50
2022/09/09 00:43:51;;;;;;;11.57;3.20;;;;;;;27.40;57.43;98418.84;2090286;28;20105;-52
2022/09/09 00:44:59;;;;;;;8.20;3.55;;;;;;;27.43;57.49;98419.41;2087740;28;20506;-53
2022/09/09 00:46:23;;;;;;;10.10;3.60;;;;;;;27.43;57.29;98416.69;2090211;27;20070;-52
2022/09/09 00:47:38;;;;;;;15.93;4.70;;;;;;;27.43;57.41;98422.13;2087153;27;20048;-51
2022/09/09 00:48:52;;;;;;;10.18;3.88;;;;;;;27.39;57.63;98417.22;2088958;28;20057;-52
2022/09/09 00:50:01;;;;;;;12.45;3.75;;;;;;;27.42;57.35;98415.06;2088120;28;20114;-51
2022/09/09 00:51:14;;;;;;;11.70;3.05;;;;;;;27.40;57.28;98418.84;2085930;28;20110;-50
2022/09/09 00:52:27;;;;;;;11.27;2.97;;;;;;;27.39;57.18;98414.50;2088690;28;20051;-53
2022/09/09 00:53:41;;;;;;;8.38;3.20;;;;;;;27.40;57.00;98412.59;2089078;28;20059;-51
2022/09/09 00:54:50;;;;;;;11.32;2.85;;;;;;;27.40;56.97;98413.41;2091899;28;20052;-52
2022/09/09 00:55:59;;;;;;;11.95;3.78;;;;;;;27.42;57.05;98406.88;2092565;28;20057;-53
2022/09/09 00:57:12;;;;;;;9.07;3.15;;;;;;;27.40;57.06;98407.13;2090161;28;20145;-51
2022/09/09 00:58:15;;;;;;;14.20;3.58;;;;;;;27.37;57.08;98408.50;2093036;28;20076;-53
2022/09/09 00:59:26;;;;;;;9.90;3.25;;;;;;;27.37;57.21;98408.50;2093280;28;20048;-49
2022/09/09 01:00:31;;;;;;;9.98;2.83;;;;;;;27.41;57.05;98408.75;2095084;28;20079;-52
2022/09/09 01:01:31;;;;;;;12.25;3.58;;;;;;;27.40;57.47;98407.94;2091879;28;20060;-53
2022/09/09 01:02:44;;;;;;;7.68;3.40;;;;;;;27.42;57.06;98412.34;2091649;28;20487;-50
2022/09/09 01:03:52;;;;;;;9.88;3.63;;;;;;;27.42;57.00;98409.59;2093847;28;20538;-52
2022/09/09 01:04:54;;;;;;;10.73;2.97;;;;;;;27.38;57.11;98415.56;2087911;28;20051;-53
2022/09/09 01:06:03;;;;;;;8.10;3.42;;;;;;;27.40;57.11;98407.94;2093905;28;20813;-50
2022/09/09 01:07:16;;;;;;;11.40;4.13;;;;;;;27.43;57.26;98405.78;2087550;28;20048;-52
2022/09/09 01:08:39;;;;;;;14.00;3.70;;;;;;;27.36;57.08;98406.84;2094282;28;20055;-52
2022/09/09 01:09:53;;;;;;;9.60;3.13;;;;;;;27.40;56.91;98401.69;2089094;28;20513;-52
2022/09/09 01:10:54;;;;;;;7.65;3.28;;;;;;;27.39;56.90;98400.06;2092400;28;20045;-53
2022/09/09 01:12:03;;;;;;;10.27;3.42;;;;;;;27.38;57.12;98401.13;2092733;28;20078;-51
2022/09/09 01:13:13;;;;;;;16.48;3.67;;;;;;;27.38;57.03;98409.31;2087590;28;20675;-53
2022/09/09 01:14:31;;;;;;;11.65;3.58;;;;;;;27.36;57.09;98403.31;2086938;28;20123;-52
2022/09/09 01:15:34;;;;;;;9.25;2.85;;;;;;;27.38;56.76;98401.94;2089190;28;20060;-53
2022/09/09 01:16:37;;;;;;;6.03;2.63;;;;;;;27.39;57.08;98400.06;2090932;28;20139;-53
2022/09/09 01:17:50;;;;;;;6.70;2.67;;;;;;;27.39;56.43;98400.06;2088669;28;20279;-54
2022/09/09 01:18:54;;;;;;;12.32;3.63;;;;;;;27.35;56.69;98399.75;2087462;28;20059;-52
2022/09/09 01:20:03;;;;;;;8.07;2.83;;;;;;;27.37;57.14;98391.34;2090139;28;20039;-53
2022/09/09 01:21:16;;;;;;;10.80;2.83;;;;;;;27.37;56.68;98386.69;2086638;28;20453;-53
2022/09/09 01:22:26;;;;;;;5.50;2.45;;;;;;;27.36;56.42;98395.16;2088085;28;20052;-52
2022/09/09 01:23:43;;;;;;;8.02;2.42;;;;;;;27.37;56.68;98396.78;2087480;28;20075;-51
2022/09/09 01:25:09;;;;;;;15.48;3.28;;;;;;;27.34;56.91;98392.69;2088059;28;20044;-49
2022/09/09 01:26:31;;;;;;;6.28;2.60;;;;;;;27.31;56.52;98387.78;2092090;28;20431;-50
2022/09/09 01:27:33;;;;;;;5.93;2.40;;;;;;;27.34;56.65;98392.69;2093470;28;20052;-51
2022/09/09 01:28:36;;;;;;;10.60;3.67;;;;;;;27.37;56.67;98386.69;2093396;28;20045;-51
2022/09/09 01:29:39;;;;;;;12.43;3.33;;;;;;;27.40;56.88;98390.81;2093397;28;20053;-52
2022/09/09 01:30:42;;;;;;;10.00;3.42;;;;;;;27.42;56.77;98394.09;2088106;28;20048;-50
2022/09/09 01:31:54;;;;;;;9.15;4.03;;;;;;;27.39;56.39;98387.25;2090390;28;20127;-50
2022/09/09 01:32:58;;;;;;;10.07;3.05;;;;;;;27.37;56.38;98385.88;2086629;28;20056;-51
2022/09/09 01:34:00;;;;;;;6.60;3.28;;;;;;;27.40;56.59;98388.88;2089099;28;20314;-53
2022/09/09 01:35:02;;;;;;;7.85;2.90;;;;;;;27.36;56.41;98387.81;2088395;28;21131;-50
2022/09/09 01:36:09;;;;;;;8.45;2.85;;;;;;;27.34;56.66;98387.25;2091138;28;20151;-52
2022/09/09 01:37:13;;;;;;;11.07;3.22;;;;;;;27.36;56.75;98387.81;2090011;28;20056;-53
2022/09/09 01:38:15;;;;;;;8.98;3.08;;;;;;;27.35;56.43;98388.06;2093839;28;20911;-53
2022/09/09 01:39:17;;;;;;;11.25;3.08;;;;;;;27.38;56.77;98388.31;2088311;28;20457;-53
2022/09/09 01:40:19;;;;;;;8.85;3.50;;;;;;;27.38;56.25;98387.50;2088643;28;20416;-53
2022/09/09 01:41:21;;;;;;;4.47;3.05;;;;;;;27.39;56.69;98384.53;2092248;28;20454;-50
2022/09/09 01:42:23;;;;;;;10.98;3.63;;;;;;;27.40;56.60;98386.16;2088144;28;20214;-52
2022/09/09 01:43:27;;;;;;;7.15;3.33;;;;;;;27.41;56.61;98386.97;2088125;28;20048;-53
2022/09/09 01:44:29;;;;;;;9.45;3.08;;;;;;;27.43;56.72;98384.00;2091681;28;22112;-51
2022/09/09 01:45:32;;;;;;;8.43;2.90;;;;;;;27.42;56.94;98382.38;2092659;28;20051;-53
2022/09/09 01:46:32;;;;;;;12.07;3.40;;;;;;;27.37;56.37;98381.25;2092898;28;20094;-52
2022/09/09 01:47:35;;;;;;;9.68;2.72;;;;;;;27.38;56.68;98382.88;2093252;28;20052;-52
2022/09/09 01:48:35;;;;;;;6.10;2.80;;;;;;;27.35;56.07;98380.69;2090992;28;20048;-53
2022/09/09 01:49:37;;;;;;;9.68;3.03;;;;;;;27.36;56.09;98378.81;2090019;28;20044;-53
2022/09/09 01:50:38;;;;;;;8.20;3.60;;;;;;;27.36;56.45;98382.34;2090806;28;20692;-52
2022/09/09 01:51:42;;;;;;;9.57;3.13;;;;;;;27.37;56.47;98377.72;2088624;28;20053;-52
2022/09/09 01:52:45;;;;;;;6.78;3.10;;;;;;;27.36;56.52;98376.09;2087054;28;20511;-51
2022/09/09 01:53:48;;;;;;;7.18;3.15;;;;;;;27.38;56.73;98377.44;2087361;28;20136;-50
2022/09/09 01:54:49;;;;;;;8.10;2.80;;;;;;;27.37;56.42;98375.81;2086884;28;20063;-53
2022/09/09 01:56:01;;;;;;;10.45;3.70;;;;;;;27.37;56.66;98377.72;2089039;28;20059;-50
2022/09/09 01:57:09;;;;;;;6.30;2.67;;;;;;;27.34;56.48;98375.53;2091519;28;20109;-48
2022/09/09 01:58:27;;;;;;;8.52;2.95;;;;;;;27.35;56.24;98380.69;2090233;28;20052;-53
2022/09/09 01:59:51;;;;;;;8.93;4.35;;;;;;;27.32;56.51;98378.50;2089159;28;20044;-52
2022/09/09 02:01:00;;;;;;;7.70;2.63;;;;;;;27.34;56.80;98380.97;2090025;28;21215;-51
2022/09/09 02:02:11;;;;;;;8.13;2.60;;;;;;;27.32;56.71;98366.81;2087825;28;20097;-52
2022/09/09 02:03:24;;;;;;;9.02;3.25;;;;;;;27.28;57.07;98371.97;2089936;28;20116;-51
2022/09/09 02:04:36;;;;;;;7.03;3.17;;;;;;;27.31;57.13;98374.16;2089095;28;20048;-54
2022/09/09 02:05:40;;;;;;;10.05;3.72;;;;;;;27.31;57.05;98368.72;2093903;28;20068;-52
2022/09/09 02:06:42;;;;;;;7.47;2.30;;;;;;;27.35;57.07;98375.25;2090259;28;20049;-52
2022/09/09 02:07:48;;;;;;;12.65;3.75;;;;;;;27.35;56.97;98369.81;2089936;28;20088;-52
2022/09/09 02:08:52;;;;;;;10.90;3.17;;;;;;;27.37;56.82;98375.00;2091898;28;20048;-50
2022/09/09 02:10:00;;;;;;;11.13;3.78;;;;;;;27.36;56.73;98378.81;2091889;28;20098;-52
2022/09/09 02:11:06;;;;;;;8.82;2.38;;;;;;;27.34;57.01;98376.34;2091724;28;20124;-53
2022/09/09 02:12:14;;;;;;;6.28;2.40;;;;;;;27.34;56.85;98376.34;2083232;28;20581;-53
2022/09/09 02:13:19;;;;;;;13.93;3.03;;;;;;;27.35;56.91;98371.72;2088936;28;20188;-52
2022/09/09 02:14:27;;;;;;;14.00;3.10;;;;;;;27.35;56.97;98372.53;2088627;28;20154;-52
2022/09/09 02:15:34;;;;;;;14.95;4.07;;;;;;;27.34;56.64;98365.44;2090164;28;20045;-51
2022/09/09 02:16:41;;;;;;;8.90;3.90;;;;;;;27.33;56.52;98372.00;2089625;28;20048;-51
2022/09/09 02:17:42;;;;;;;6.47;2.92;;;;;;;27.34;56.99;98370.09;2091035;28;20052;-50
2022/09/09 02:18:49;;;;;;;13.60;2.85;;;;;;;27.33;56.82;98371.16;2091937;28;20052;-52
2022/09/09 02:19:56;;;;;;;8.43;2.97;;;;;;;27.34;56.70;98368.19;2090560;28;20105;-51
2022/09/09 02:21:00;;;;;;;12.50;4.05;;;;;;;27.34;56.50;98367.38;2089623;28;20044;-50
2022/09/09 02:22:02;;;;;;;6.78;3.03;;;;;;;27.34;56.93;98375.53;2091276;28;20064;-52
2022/09/09 02:23:06;;;;;;;8.60;2.67;;;;;;;27.34;57.15;98372.81;2089988;28;20135;-54
2022/09/09 02:24:10;;;;;;;10.80;3.53;;;;;;;27.32;56.70;98373.06;2087282;28;20048;-56
2022/09/09 02:25:15;;;;;;;10.55;2.60;;;;;;;27.32;57.16;98375.78;2086283;28;20241;-60
2022/09/09 02:26:20;;;;;;;8.30;2.95;;;;;;;27.33;56.79;98372.00;2089456;28;20727;-47
2022/09/09 02:27:23;;;;;;;8.80;2.55;;;;;;;27.30;56.80;98374.41;2089473;28;20051;-56
2022/09/09 02:28:27;;;;;;;11.15;3.28;;;;;;;27.30;56.90;98375.25;2086285;28;20044;-54
2022/09/09 02:29:34;;;;;;;10.90;2.78;;;;;;;27.31;56.80;98376.88;2085711;28;22297;-51
2022/09/09 02:30:37;;;;;;;7.75;2.55;;;;;;;27.34;56.85;98380.97;2086769;28;20040;-49
2022/09/09 02:31:40;;;;;;;8.98;2.60;;;;;;;27.32;56.88;98375.78;2088463;28;20140;-57
2022/09/09 02:32:43;;;;;;;9.45;2.75;;;;;;;27.32;56.60;98374.97;2090757;28;20048;-60
2022/09/09 02:34:02;;;;;;;16.98;4.68;;;;;;;27.33;56.82;98374.72;2089426;28;20044;-51
2022/09/09 02:35:08;;;;;;;8.60;2.60;;;;;;;27.29;56.92;98375.50;2091569;28;21045;-58
2022/09/09 02:36:13;;;;;;;13.13;3.30;;;;;;;27.27;56.87;98375.75;2091215;28;20110;-57
2022/09/09 02:37:17;;;;;;;10.10;3.88;;;;;;;27.25;56.72;98377.97;2087806;28;20578;-59
2022/09/09 02:38:23;;;;;;;7.43;2.67;;;;;;;27.30;56.54;98375.25;2090501;28;20052;-55
2022/09/09 02:39:23;;;;;;;8.30;3.22;;;;;;;27.32;56.63;98378.50;2084312;28;20816;-51
2022/09/09 02:40:25;;;;;;;7.15;2.88;;;;;;;27.32;56.16;98372.25;2087383;28;20049;-58
2022/09/09 02:41:31;;;;;;;7.70;2.75;;;;;;;27.36;56.25;98376.09;2088528;28;20047;-57
2022/09/09 02:42:33;;;;;;;8.05;3.08;;;;;;;27.32;56.49;98381.22;2093225;28;20063;-56
2022/09/09 02:43:35;;;;;;;7.10;2.60;;;;;;;27.33;56.11;98380.16;2089950;28;20044;-51
2022/09/09 02:44:37;;;;;;;7.78;3.13;;;;;;;27.29;55.94;98380.97;2091511;28;20044;-55
2022/09/09 02:45:44;;;;;;;6.82;2.25;;;;;;;27.31;56.66;98379.59;2091965;28;20040;-49
2022/09/09 02:47:04;;;;;;;7.82;2.75;;;;;;;27.32;56.65;98377.69;2090698;28;20055;-57
2022/09/09 02:48:14;;;;;;;6.75;2.53;;;;;;;27.30;56.24;98375.25;2085477;28;20087;-59
2022/09/09 02:49:22;;;;;;;7.47;2.42;;;;;;;27.30;56.01;98377.97;2088378;28;20945;-56
2022/09/09 02:50:26;;;;;;;9.27;2.75;;;;;;;27.30;56.13;98369.81;2090168;28;20531;-56
2022/09/09 02:51:37;;;;;;;6.15;2.08;;;;;;;27.30;55.96;98368.97;2082333;28;20097;-57
2022/09/09 02:52:58;;;;;;;7.90;3.10;;;;;;;27.30;56.37;98367.09;2089270;28;20310;-51
2022/09/09 02:54:09;;;;;;;5.72;2.38;;;;;;;27.28;56.50;98376.59;2086836;28;20083;-51
2022/09/09 02:55:18;;;;;;;7.47;2.83;;;;;;;27.27;56.16;98375.75;2089736;28;20385;-58
2022/09/09 02:56:24;;;;;;;6.18;2.58;;;;;;;27.30;56.00;98369.81;2087307;28;20483;-55
2022/09/09 02:57:29;;;;;;;6.15;2.20;;;;;;;27.29;56.21;98370.88;2087846;28;20066;-57
2022/09/09 02:58:30;;;;;;;10.02;3.00;;;;;;;27.31;56.31;98376.06;2091143;28;20168;-54
2022/09/09 02:59:34;;;;;;;8.00;2.67;;;;;;;27.29;56.14;98368.16;2089115;28;20064;-56
2022/09/09 03:00:35;;;;;;;10.20;3.25;;;;;;;27.30;56.31;98364.38;2088426;28;20056;-59
2022/09/09 03:01:39;;;;;;;15.18;3.13;;;;;;;27.29;56.14;98365.44;2084697;28;20472;-52
2022/09/09 03:02:41;;;;;;;4.93;2.25;;;;;;;27.30;56.01;98369.81;2088006;28;20519;-60
2022/09/09 03:03:44;;;;;;;7.57;2.63;;;;;;;27.29;56.11;98368.16;2085005;28;20051;-53
2022/09/09 03:04:50;;;;;;;5.63;2.13;;;;;;;27.31;56.28;98367.91;2090286;28;20048;-57
2022/09/09 03:05:52;;;;;;;9.48;1.85;;;;;;;27.28;56.21;98366.53;2089678;28;20052;-51
2022/09/09 03:06:52;;;;;;;5.35;2.55;;;;;;;27.28;55.84;98371.97;2089159;28;20068;-59
2022/09/09 03:07:54;;;;;;;9.05;3.33;;;;;;;27.29;55.96;98375.50;2089852;28;20561;-52
2022/09/09 03:08:55;;;;;;;7.10;2.28;;;;;;;27.31;56.02;98371.44;2089915;28;20140;-53
2022/09/09 03:09:58;;;;;;;8.60;2.85;;;;;;;27.32;56.09;98374.97;2088099;28;20526;-56
2022/09/09 03:11:00;;;;;;;11.20;2.28;;;;;;;27.31;55.90;98365.19;2089404;28;20051;-50
2022/09/09 03:12:03;;;;;;;9.65;3.58;;;;;;;27.29;55.86;98368.16;2089176;28;20076;-54
2022/09/09 03:13:05;;;;;;;6.47;2.78;;;;;;;27.28;56.34;98369.25;2093083;28;20048;-52
2022/09/09 03:14:08;;;;;;;5.05;2.33;;;;;;;27.29;56.01;98370.06;2081942;28;20040;-53
2022/09/09 03:15:10;;;;;;;7.25;3.08;;;;;;;27.30;56.22;98369.81;2088696;28;20053;-60
2022/09/09 03:16:12;;;;;;;6.97;2.30;;;;;;;27.26;56.35;98373.31;2087885;28;20136;-59
2022/09/09 03:17:13;;;;;;;5.63;2.53;;;;;;;27.31;55.79;98374.16;2090767;28;20048;-51
2022/09/09 03:18:14;;;;;;;5.70;1.88;;;;;;;27.31;55.85;98374.16;2085572;28;20056;-48
2022/09/09 03:19:15;;;;;;;5.80;1.83;;;;;;;27.29;55.92;98367.34;2090530;28;20411;-54
2022/09/09 03:20:17;;;;;;;7.07;2.58;;;;;;;27.28;55.95;98369.25;2090920;28;20048;-52
2022/09/09 03:21:18;;;;;;;3.72;2.03;;;;;;;27.29;55.69;98373.59;2091134;28;20560;-48
2022/09/09 03:22:20;;;;;;;8.73;2.50;;;;;;;27.29;55.73;98368.16;2091905;28;20048;-55
2022/09/09 03:23:21;;;;;;;13.50;3.67;;;;;;;27.28;56.10;98365.72;2089878;28;20079;-56
2022/09/09 03:24:23;;;;;;;9.15;2.60;;;;;;;27.28;56.07;98363.81;2090705;28;20048;-53
2022/09/09 03:25:25;;;;;;;6.80;3.35;;;;;;;27.29;55.81;98370.88;2091892;28;20702;-51
2022/09/09 03:26:27;;;;;;;5.50;2.30;;;;;;;27.30;55.92;98363.53;2091322;28;20044;-50
2022/09/09 03:27:27;;;;;;;6.13;1.92;;;;;;;27.31;55.90;98367.91;2089124;28;20041;-56
2022/09/09 03:28:31;;;;;;;7.20;2.63;;;;;;;27.31;55.57;98366.00;2086847;28;20474;-56
2022/09/09 03:29:31;;;;;;;8.05;2.10;;;;;;;27.30;55.93;98366.25;2089635;28;20122;-56
2022/09/09 03:30:34;;;;;;;15.65;3.78;;;;;;;27.26;55.91;98367.88;2088720;28;20075;-53
2022/09/09 03:31:36;;;;;;;6.30;2.00;;;;;;;27.27;56.05;98361.34;2088944;28;22015;-57
2022/09/09 03:32:38;;;;;;;7.88;2.33;;;;;;;27.28;55.90;98363.00;2089397;28;20059;-56
2022/09/09 03:33:39;;;;;;;9.73;2.75;;;;;;;27.27;55.90;98367.59;2090517;28;20041;-54
2022/09/09 03:34:40;;;;;;;6.15;2.38;;;;;;;27.28;55.88;98361.09;2093205;28;20424;-52
2022/09/09 03:35:47;;;;;;;3.97;1.70;;;;;;;27.27;55.82;98367.59;2090869;28;20102;-51
2022/09/09 03:36:49;;;;;;;5.30;2.33;;;;;;;27.23;55.76;98361.06;2089780;28;20048;-57
2022/09/09 03:37:50;;;;;;;5.82;2.70;;;;;;;27.25;55.92;98364.34;2087770;28;20299;-53
2022/09/09 03:38:52;;;;;;;4.78;2.33;;;;;;;27.27;55.95;98364.06;2092136;28;20076;-60
2022/09/09 03:39:54;;;;;;;5.43;2.03;;;;;;;27.27;55.89;98370.31;2089237;28;20423;-54
2022/09/09 03:40:57;;;;;;;7.57;2.97;;;;;;;27.28;56.15;98366.53;2093075;28;20043;-60
2022/09/09 03:41:58;;;;;;;6.30;1.90;;;;;;;27.27;55.94;98366.78;2089712;28;20751;-56
2022/09/09 03:43:00;;;;;;;5.50;1.80;;;;;;;27.25;56.17;98367.06;2087747;28;20040;-55
2022/09/09 03:44:01;;;;;;;8.50;2.78;;;;;;;27.27;55.97;98367.59;2088052;28;21017;-54
2022/09/09 03:45:03;;;;;;;7.65;2.30;;;;;;;27.27;55.73;98373.03;2090262;28;20114;-50
2022/09/09 03:46:05;;;;;;;7.20;2.25;;;;;;;27.28;55.89;98371.97;2087829;27;22344;-52
2022/09/09 03:47:06;;;;;;;5.70;1.90;;;;;;;27.27;55.85;98375.75;2088473;28;20929;-56
2022/09/09 03:48:09;;;;;;;4.82;1.95;;;;;;;27.26;55.64;98370.59;2088429;28;20048;-60
2022/09/09 03:49:12;;;;;;;9.73;2.60;;;;;;;27.24;55.62;98376.31;2093217;28;20052;-60
2022/09/09 03:50:13;;;;;;;6.88;2.30;;;;;;;27.26;56.04;98367.88;2090040;28;20468;-49
2022/09/09 03:51:15;;;;;;;5.28;2.25;;;;;;;27.26;56.09;98368.69;2093300;28;20052;-54
2022/09/09 03:52:16;;;;;;;8.10;2.58;;;;;;;27.25;55.96;98372.50;2088950;28;20045;-60
2022/09/09 03:53:19;;;;;;;5.85;2.10;;;;;;;27.25;55.55;98371.69;2088897;28;20168;-56
2022/09/09 03:54:20;;;;;;;9.68;2.72;;;;;;;27.26;55.87;98374.13;2088257;28;20048;-54
2022/09/09 03:55:22;;;;;;;3.88;1.65;;;;;;;27.26;55.94;98368.69;2089502;28;20172;-60
2022/09/09 03:56:23;;;;;;;10.45;2.65;;;;;;;27.24;55.89;98365.41;2089815;28;20140;-53
2022/09/09 03:57:24;;;;;;;5.30;2.33;;;;;;;27.25;56.13;98368.97;2088709;28;20057;-55
2022/09/09 03:58:26;;;;;;;5.82;2.03;;;;;;;27.24;55.55;98370.03;2090992;28;20044;-56
2022/09/09 03:59:28;;;;;;;7.30;3.00;;;;;;;27.23;56.23;98366.50;2090204;28;20056;-59
2022/09/09 04:00:30;;;;;;;6.28;2.20;;;;;;;27.21;56.05;98371.38;2092564;28;20071;-46
2022/09/09 04:01:33;;;;;;;6.97;2.70;;;;;;;27.23;56.19;98365.69;2092956;28;20052;-55
2022/09/09 04:02:34;;;;;;;4.57;2.20;;;;;;;27.22;56.14;98359.44;2090469;28;20048;-48
2022/09/09 04:03:36;;;;;;;8.63;2.97;;;;;;;27.20;55.71;98364.31;2092662;28;20101;-50
2022/09/09 04:04:36;;;;;;;4.95;2.08;;;;;;;27.19;55.81;98357.22;2085831;28;20093;-54
2022/09/09 04:05:42;;;;;;;7.65;2.63;;;;;;;27.20;55.72;98356.16;2089680;28;20060;-57
2022/09/09 04:06:42;;;;;;;8.10;2.17;;;;;;;27.19;55.99;98365.38;2089205;28;20051;-48
2022/09/09 04:07:44;;;;;;;6.40;3.35;;;;;;;27.19;55.87;98359.94;2087147;28;20044;-60
2022/09/09 04:08:45;;;;;;;6.88;3.03;;;;;;;27.21;55.86;98360.50;2088136;28;20048;-55
2022/09/09 04:09:47;;;;;;;4.43;1.90;;;;;;;27.15;56.30;98356.09;2091093;28;20048;-56
2022/09/09 04:10:48;;;;;;;9.13;2.08;;;;;;;27.18;56.32;98359.13;2087727;28;20052;-54
2022/09/09 04:11:50;;;;;;;6.65;2.53;;;;;;;27.20;55.99;98358.06;2089393;28;20607;-53
2022/09/09 04:12:52;;;;;;;9.70;2.45;;;;;;;27.21;56.10;98360.50;2090981;28;20044;-57
2022/09/09 04:13:54;;;;;;;5.15;2.45;;;;;;;27.21;55.86;98352.34;2091877;28;20044;-55
2022/09/09 04:14:54;;;;;;;9.68;2.83;;;;;;;27.22;55.96;98355.88;2090054;28;20048;-54
2022/09/09 04:15:58;;;;;;;7.18;2.00;;;;;;;27.21;55.79;98357.78;2090364;28;20524;-54
2022/09/09 04:17:00;;;;;;;7.53;2.40;;;;;;;27.20;55.85;98356.16;2087307;28;20083;-53
2022/09/09 04:18:02;;;;;;;6.47;2.63;;;;;;;27.20;56.07;98353.44;2086436;28;20098;-53
2022/09/09 04:19:04;;;;;;;5.22;2.28;;;;;;;27.18;55.58;98358.31;2086151;28;23876;-56
2022/09/09 04:20:07;;;;;;;5.20;2.40;;;;;;;27.16;56.02;98363.19;2087121;28;20132;-56
2022/09/09 04:21:09;;;;;;;5.55;2.10;;;;;;;27.18;55.73;98361.03;2093778;28;20052;-59
2022/09/09 04:22:11;;;;;;;8.70;2.35;;;;;;;27.18;55.60;98361.03;2087480;28;20558;-59
2022/09/09 04:23:12;;;;;;;13.40;2.55;;;;;;;27.17;56.03;98359.41;2090338;28;20312;-60
2022/09/09 04:24:16;;;;;;;11.80;2.70;;;;;;;27.18;55.95;98369.19;2088383;28;20044;-58
2022/09/09 04:25:16;;;;;;;7.40;2.03;;;;;;;27.16;56.11;98363.19;2090846;28;20098;-55
2022/09/09 04:26:19;;;;;;;8.50;2.28;;;;;;;27.17;55.79;98370.31;2089190;28;20044;-60
2022/09/09 04:27:20;;;;;;;6.38;2.00;;;;;;;27.16;56.19;98374.09;2089902;28;20068;-54
2022/09/09 04:28:24;;;;;;;7.38;2.60;;;;;;;27.16;56.09;98366.75;2088193;28;20056;-56
2022/09/09 04:29:25;;;;;;;6.93;2.38;;;;;;;27.15;55.99;98369.72;2087096;28;20102;-55
2022/09/09 04:30:28;;;;;;;5.53;3.60;;;;;;;27.15;55.83;98364.25;2087802;28;20584;-56
2022/09/09 04:31:29;;;;;;;7.65;1.90;;;;;;;27.11;56.31;98366.72;2087813;28;20063;-56
2022/09/09 04:32:33;;;;;;;4.80;1.98;;;;;;;27.06;56.06;98374.03;2087823;28;20131;-60
2022/09/09 04:33:34;;;;;;;5.80;1.88;;;;;;;27.09;56.01;98370.78;2092175;28;20138;-54
2022/09/09 04:34:36;;;;;;;5.40;1.85;;;;;;;27.09;56.32;98376.22;2087227;28;20060;-53
2022/09/09 04:35:37;;;;;;;6.60;1.98;;;;;;;27.13;55.77;98369.97;2089638;28;20047;-52
2022/09/09 04:36:40;;;;;;;6.85;2.20;;;;;;;27.15;55.66;98366.97;2087697;28;20056;-54
2022/09/09 04:37:41;;;;;;;10.27;2.33;;;;;;;27.15;55.80;98365.06;2088094;28;20071;-56
2022/09/09 04:38:43;;;;;;;6.90;2.13;;;;;;;27.15;55.88;98366.97;2091049;28;20055;-53
2022/09/09 04:39:45;;;;;;;5.45;2.03;;;;;;;27.13;56.01;98364.50;2091207;28;20127;-55
2022/09/09 04:40:48;;;;;;;9.98;2.28;;;;;;;27.13;56.15;98369.16;2091323;28;20048;-47
2022/09/09 04:41:50;;;;;;;4.25;2.22;;;;;;;27.12;56.08;98364.81;2089632;28;20048;-57
2022/09/09 04:42:51;;;;;;;7.53;2.78;;;;;;;27.16;55.80;98365.91;2088660;28;20411;-52
2022/09/09 04:43:53;;;;;;;5.93;1.92;;;;;;;27.14;55.60;98368.91;2091711;28;20053;-58
2022/09/09 04:44:54;;;;;;;7.63;2.30;;;;;;;27.16;55.97;98371.38;2090148;28;20047;-54
2022/09/09 04:45:56;;;;;;;5.28;2.72;;;;;;;27.12;55.84;98364.81;2088513;28;20155;-59
2022/09/09 04:46:58;;;;;;;7.68;2.50;;;;;;;27.12;55.59;98368.34;2090079;28;20052;-52
2022/09/09 04:48:00;;;;;;;4.88;1.95;;;;;;;27.13;55.69;98369.16;2088124;28;20457;-57
2022/09/09 04:49:02;;;;;;;3.10;2.10;;;;;;;27.13;55.48;98369.97;2087347;28;20526;-54
2022/09/09 04:50:03;;;;;;;8.70;1.90;;;;;;;27.13;55.74;98374.59;2087734;28;20687;-55
2022/09/09 04:51:06;;;;;;;4.88;1.95;;;;;;;27.14;55.70;98368.91;2088443;28;20060;-53
2022/09/09 04:52:07;;;;;;;4.70;2.00;;;;;;;27.11;55.73;98374.06;2085996;28;20910;-56
2022/09/09 04:53:09;;;;;;;3.97;1.63;;;;;;;27.13;55.88;98374.59;2086396;28;20841;-53
2022/09/09 04:54:11;;;;;;;6.47;1.80;;;;;;;27.11;55.70;98374.06;2087572;28;20113;-46
2022/09/09 04:55:13;;;;;;;7.55;2.30;;;;;;;27.12;55.74;98376.50;2091327;28;20125;-54
2022/09/09 04:56:16;;;;;;;5.25;2.05;;;;;;;27.13;55.52;98371.88;2088927;28;20148;-56
2022/09/09 04:57:18;;;;;;;3.72;2.30;;;;;;;27.12;55.79;98373.78;2087668;28;20053;-49
2022/09/09 04:58:18;;;;;;;3.75;1.77;;;;;;;27.13;55.81;98369.97;2087985;28;20107;-54
2022/09/09 04:59:21;;;;;;;4.82;2.05;;;;;;;27.14;55.62;98374.34;2087546;28;20056;-55
2022/09/09 05:00:22;;;;;;;4.78;2.05;;;;;;;27.12;55.69;98379.22;2088279;28;20052;-50
2022/09/09 05:01:24;;;;;;;8.35;1.80;;;;;;;27.12;55.55;98368.34;2090578;28;20163;-54
2022/09/09 05:02:25;;;;;;;6.00;1.70;;;;;;;27.12;55.49;98372.97;2085515;28;20555;-53
2022/09/09 05:03:28;;;;;;;6.47;1.60;;;;;;;27.12;55.37;98371.06;2090309;28;20056;-57
2022/09/09 05:04:29;;;;;;;3.90;1.60;;;;;;;27.13;55.70;98369.16;2089078;28;20047;-46
2022/09/09 05:05:31;;;;;;;7.22;1.95;;;;;;;27.11;55.46;98376.78;2087748;28;20198;-56